Disclaimer

Please do not use the information listed here in-flight or in-navigation, as they are not provided to us by the airports but are provided by volunteers, so they might be outdated.

Search


Regions


Airport information page

Radio informations:
FINAL - 123.3 MHz
Approach (APP) - 119.1 MHz

Airport informations:
Latitude: 52° 55' 24.07" N
Longitude: 004° 46' 50.25" E
Elevation: 3 feet - 1 meters
Operating hours: Remarks
Operating agency: Military
Timezone: UTC+1(+2DT) - Last Sunday in March to last Sunday in October
Fuel: N/A

Runway information:
04/22 - 4183 x 98 feet< - >1275 x 30 meters

Recent METARs:
EHKD 201355Z AUTO 08022KT 9999 BKN022 OVC026 04/M01 Q1011 WHT 08025G35KT 9999 OVC020
EHKD 201425Z AUTO 09021KT 060V120 9999 BKN021 OVC024 04/M01 Q1011 WHT 08020G30KT 9999 OVC020
EHKD 201458Z AUTO 08020KT 050V110 9999 FEW019 BKN025 OVC029 04/M00 Q1011 BLU 08020G30KT 9999 OVC020

Airport on the map: